sensor_id;sensor_type;location;lat;lon;timestamp;P1;durP1;ratioP1;P2;durP2;ratioP2
64667;SDS011;51077;42.716;23.344;2022-09-27T00:02:13;5.60;;;3.47;;
64667;SDS011;51077;42.716;23.344;2022-09-27T00:04:38;5.60;;;3.73;;
64667;SDS011;51077;42.716;23.344;2022-09-27T00:07:04;6.10;;;3.83;;
64667;SDS011;51077;42.716;23.344;2022-09-27T00:09:30;5.67;;;3.60;;
64667;SDS011;51077;42.716;23.344;2022-09-27T00:11:55;5.30;;;3.20;;
64667;SDS011;51077;42.716;23.344;2022-09-27T00:14:20;8.23;;;3.90;;
64667;SDS011;51077;42.716;23.344;2022-09-27T00:16:46;8.20;;;3.90;;
64667;SDS011;51077;42.716;23.344;2022-09-27T00:19:13;7.63;;;4.17;;
64667;SDS011;51077;42.716;23.344;2022-09-27T00:21:40;6.82;;;3.65;;
64667;SDS011;51077;42.716;23.344;2022-09-27T00:24:10;8.10;;;4.32;;
64667;SDS011;51077;42.716;23.344;2022-09-27T00:26:37;6.68;;;4.10;;
64667;SDS011;51077;42.716;23.344;2022-09-27T00:29:02;7.20;;;4.30;;
64667;SDS011;51077;42.716;23.344;2022-09-27T00:31:29;6.22;;;3.80;;
64667;SDS011;51077;42.716;23.344;2022-09-27T00:33:55;5.88;;;3.53;;
64667;SDS011;51077;42.716;23.344;2022-09-27T00:36:23;5.93;;;3.92;;
64667;SDS011;51077;42.716;23.344;2022-09-27T00:38:50;4.78;;;3.50;;
64667;SDS011;51077;42.716;23.344;2022-09-27T00:41:19;7.70;;;3.80;;
64667;SDS011;51077;42.716;23.344;2022-09-27T00:43:51;7.30;;;4.15;;
64667;SDS011;51077;42.716;23.344;2022-09-27T00:46:39;7.03;;;4.30;;
64667;SDS011;51077;42.716;23.344;2022-09-27T00:51:58;6.28;;;3.95;;
64667;SDS011;51077;42.716;23.344;2022-09-27T00:54:28;5.35;;;3.78;;
64667;SDS011;51077;42.716;23.344;2022-09-27T00:56:55;5.53;;;3.78;;
64667;SDS011;51077;42.716;23.344;2022-09-27T01:01:56;6.78;;;3.78;;
64667;SDS011;51077;42.716;23.344;2022-09-27T01:04:23;5.07;;;3.60;;
64667;SDS011;51077;42.716;23.344;2022-09-27T01:06:51;5.28;;;3.65;;
64667;SDS011;51077;42.716;23.344;2022-09-27T01:09:17;7.63;;;3.90;;
64667;SDS011;51077;42.716;23.344;2022-09-27T01:35:32;6.85;;;4.63;;
64667;SDS011;51077;42.716;23.344;2022-09-27T01:38:17;7.55;;;4.80;;
64667;SDS011;51077;42.716;23.344;2022-09-27T01:46:36;5.28;;;3.90;;
64667;SDS011;51077;42.716;23.344;2022-09-27T01:49:12;6.70;;;3.90;;
64667;SDS011;51077;42.716;23.344;2022-09-27T01:51:45;6.20;;;4.10;;
64667;SDS011;51077;42.716;23.344;2022-09-27T01:54:18;8.38;;;4.22;;
64667;SDS011;51077;42.716;23.344;2022-09-27T01:56:50;7.00;;;4.35;;
64667;SDS011;51077;42.716;23.344;2022-09-27T02:01:52;4.80;;;3.90;;
64667;SDS011;51077;42.716;23.344;2022-09-27T02:04:24;6.45;;;3.70;;
64667;SDS011;51077;42.716;23.344;2022-09-27T02:06:54;9.32;;;4.57;;
64667;SDS011;51077;42.716;23.344;2022-09-27T02:11:56;7.28;;;3.90;;
64667;SDS011;51077;42.716;23.344;2022-09-27T02:22:31;8.20;;;4.57;;
64667;SDS011;51077;42.716;23.344;2022-09-27T02:25:13;5.72;;;4.03;;
64667;SDS011;51077;42.716;23.344;2022-09-27T02:27:59;8.73;;;4.15;;
64667;SDS011;51077;42.716;23.344;2022-09-27T02:30:26;8.45;;;4.18;;
64667;SDS011;51077;42.716;23.344;2022-09-27T02:32:51;7.37;;;4.37;;
64667;SDS011;51077;42.716;23.344;2022-09-27T02:35:18;5.57;;;3.92;;
64667;SDS011;51077;42.716;23.344;2022-09-27T02:37:48;7.13;;;4.45;;
64667;SDS011;51077;42.716;23.344;2022-09-27T02:40:15;6.90;;;4.38;;
64667;SDS011;51077;42.716;23.344;2022-09-27T02:42:41;6.93;;;4.50;;
64667;SDS011;51077;42.716;23.344;2022-09-27T02:45:08;7.20;;;4.28;;
64667;SDS011;51077;42.716;23.344;2022-09-27T02:50:24;6.35;;;4.28;;
64667;SDS011;51077;42.716;23.344;2022-09-27T02:53:20;6.20;;;3.90;;
64667;SDS011;51077;42.716;23.344;2022-09-27T02:55:50;5.97;;;4.07;;
64667;SDS011;51077;42.716;23.344;2022-09-27T03:04:03;5.50;;;3.80;;
64667;SDS011;51077;42.716;23.344;2022-09-27T03:06:33;4.95;;;4.00;;
64667;SDS011;51077;42.716;23.344;2022-09-27T03:09:00;5.25;;;4.20;;
64667;SDS011;51077;42.716;23.344;2022-09-27T03:11:25;5.60;;;4.10;;
64667;SDS011;51077;42.716;23.344;2022-09-27T03:13:51;6.90;;;4.17;;
64667;SDS011;51077;42.716;23.344;2022-09-27T03:16:16;6.30;;;4.00;;
64667;SDS011;51077;42.716;23.344;2022-09-27T03:18:42;6.47;;;4.37;;
64667;SDS011;51077;42.716;23.344;2022-09-27T03:21:07;5.40;;;4.03;;
64667;SDS011;51077;42.716;23.344;2022-09-27T03:23:33;5.73;;;4.07;;
64667;SDS011;51077;42.716;23.344;2022-09-27T03:25:58;8.07;;;4.27;;
64667;SDS011;51077;42.716;23.344;2022-09-27T03:28:24;5.70;;;4.33;;
64667;SDS011;51077;42.716;23.344;2022-09-27T03:30:49;6.70;;;4.20;;
64667;SDS011;51077;42.716;23.344;2022-09-27T03:33:15;5.57;;;4.30;;
64667;SDS011;51077;42.716;23.344;2022-09-27T03:35:41;5.87;;;4.20;;
64667;SDS011;51077;42.716;23.344;2022-09-27T03:38:07;10.38;;;4.65;;
64667;SDS011;51077;42.716;23.344;2022-09-27T03:40:33;5.63;;;4.00;;
64667;SDS011;51077;42.716;23.344;2022-09-27T03:42:59;7.00;;;4.40;;
64667;SDS011;51077;42.716;23.344;2022-09-27T03:45:24;5.10;;;4.30;;
64667;SDS011;51077;42.716;23.344;2022-09-27T03:47:50;6.20;;;4.20;;
64667;SDS011;51077;42.716;23.344;2022-09-27T03:50:15;7.20;;;4.23;;
64667;SDS011;51077;42.716;23.344;2022-09-27T03:52:41;5.80;;;3.80;;
64667;SDS011;51077;42.716;23.344;2022-09-27T03:55:08;7.53;;;4.05;;
64667;SDS011;51077;42.716;23.344;2022-09-27T03:57:34;5.75;;;4.20;;
64667;SDS011;51077;42.716;23.344;2022-09-27T04:00:00;5.77;;;4.13;;
64667;SDS011;51077;42.716;23.344;2022-09-27T04:02:26;6.77;;;4.43;;
64667;SDS011;51077;42.716;23.344;2022-09-27T04:04:52;7.25;;;4.20;;
64667;SDS011;51077;42.716;23.344;2022-09-27T04:07:17;5.50;;;4.20;;
64667;SDS011;51077;42.716;23.344;2022-09-27T04:09:43;6.43;;;4.40;;
64667;SDS011;51077;42.716;23.344;2022-09-27T04:12:10;7.78;;;4.57;;
64667;SDS011;51077;42.716;23.344;2022-09-27T04:14:36;6.07;;;4.50;;
64667;SDS011;51077;42.716;23.344;2022-09-27T04:17:02;6.67;;;5.00;;
64667;SDS011;51077;42.716;23.344;2022-09-27T04:19:27;7.63;;;5.30;;
64667;SDS011;51077;42.716;23.344;2022-09-27T04:21:53;7.97;;;4.83;;
64667;SDS011;51077;42.716;23.344;2022-09-27T04:24:18;6.40;;;4.40;;
64667;SDS011;51077;42.716;23.344;2022-09-27T04:26:43;6.60;;;4.63;;
64667;SDS011;51077;42.716;23.344;2022-09-27T04:29:09;7.00;;;5.07;;
64667;SDS011;51077;42.716;23.344;2022-09-27T04:31:35;7.23;;;5.17;;
64667;SDS011;51077;42.716;23.344;2022-09-27T04:34:02;7.32;;;4.65;;
64667;SDS011;51077;42.716;23.344;2022-09-27T04:36:28;6.03;;;5.18;;
64667;SDS011;51077;42.716;23.344;2022-09-27T04:38:55;5.90;;;4.63;;
64667;SDS011;51077;42.716;23.344;2022-09-27T04:41:23;8.75;;;4.65;;
64667;SDS011;51077;42.716;23.344;2022-09-27T04:43:53;8.43;;;5.15;;
64667;SDS011;51077;42.716;23.344;2022-09-27T04:46:19;6.75;;;4.80;;
64667;SDS011;51077;42.716;23.344;2022-09-27T04:48:45;7.78;;;5.05;;
64667;SDS011;51077;42.716;23.344;2022-09-27T04:51:11;8.10;;;5.57;;
64667;SDS011;51077;42.716;23.344;2022-09-27T04:53:38;7.95;;;5.05;;
64667;SDS011;51077;42.716;23.344;2022-09-27T04:56:03;8.17;;;5.77;;
64667;SDS011;51077;42.716;23.344;2022-09-27T04:58:31;7.97;;;5.95;;
64667;SDS011;51077;42.716;23.344;2022-09-27T05:01:00;7.32;;;5.70;;
64667;SDS011;51077;42.716;23.344;2022-09-27T05:03:28;8.55;;;6.10;;
64667;SDS011;51077;42.716;23.344;2022-09-27T05:05:54;6.45;;;5.50;;
64667;SDS011;51077;42.716;23.344;2022-09-27T05:08:19;9.27;;;6.60;;
64667;SDS011;51077;42.716;23.344;2022-09-27T05:10:45;10.00;;;6.63;;
64667;SDS011;51077;42.716;23.344;2022-09-27T05:13:11;7.47;;;6.10;;
64667;SDS011;51077;42.716;23.344;2022-09-27T05:15:37;9.73;;;6.55;;
64667;SDS011;51077;42.716;23.344;2022-09-27T05:18:03;8.90;;;6.35;;
64667;SDS011;51077;42.716;23.344;2022-09-27T05:20:31;8.85;;;5.78;;
64667;SDS011;51077;42.716;23.344;2022-09-27T05:22:56;8.27;;;6.67;;
64667;SDS011;51077;42.716;23.344;2022-09-27T05:25:22;10.10;;;6.80;;
64667;SDS011;51077;42.716;23.344;2022-09-27T05:27:48;8.83;;;5.97;;
64667;SDS011;51077;42.716;23.344;2022-09-27T05:30:14;11.10;;;6.05;;
64667;SDS011;51077;42.716;23.344;2022-09-27T05:32:41;7.90;;;6.37;;
64667;SDS011;51077;42.716;23.344;2022-09-27T05:35:09;7.78;;;6.32;;
64667;SDS011;51077;42.716;23.344;2022-09-27T05:37:35;7.30;;;5.70;;
64667;SDS011;51077;42.716;23.344;2022-09-27T05:40:00;7.00;;;5.40;;
64667;SDS011;51077;42.716;23.344;2022-09-27T05:42:27;7.68;;;5.10;;
64667;SDS011;51077;42.716;23.344;2022-09-27T05:44:53;8.80;;;5.25;;
64667;SDS011;51077;42.716;23.344;2022-09-27T05:47:19;8.27;;;4.83;;
64667;SDS011;51077;42.716;23.344;2022-09-27T05:49:44;7.20;;;5.20;;
64667;SDS011;51077;42.716;23.344;2022-09-27T05:52:10;7.33;;;5.63;;
64667;SDS011;51077;42.716;23.344;2022-09-27T05:54:35;7.70;;;5.33;;
64667;SDS011;51077;42.716;23.344;2022-09-27T05:57:01;7.07;;;5.60;;
64667;SDS011;51077;42.716;23.344;2022-09-27T05:59:26;6.67;;;5.13;;
64667;SDS011;51077;42.716;23.344;2022-09-27T06:01:52;8.17;;;5.93;;
64667;SDS011;51077;42.716;23.344;2022-09-27T06:04:18;6.10;;;5.07;;
64667;SDS011;51077;42.716;23.344;2022-09-27T06:06:44;8.80;;;5.40;;
64667;SDS011;51077;42.716;23.344;2022-09-27T06:09:10;9.13;;;5.47;;
64667;SDS011;51077;42.716;23.344;2022-09-27T06:11:37;7.38;;;5.45;;
64667;SDS011;51077;42.716;23.344;2022-09-27T06:14:02;7.20;;;5.33;;
64667;SDS011;51077;42.716;23.344;2022-09-27T06:16:29;7.80;;;5.28;;
64667;SDS011;51077;42.716;23.344;2022-09-27T06:18:54;8.10;;;5.27;;
64667;SDS011;51077;42.716;23.344;2022-09-27T06:21:20;6.70;;;5.27;;
64667;SDS011;51077;42.716;23.344;2022-09-27T06:23:46;7.10;;;5.07;;
64667;SDS011;51077;42.716;23.344;2022-09-27T06:26:12;10.53;;;5.93;;
64667;SDS011;51077;42.716;23.344;2022-09-27T06:28:37;7.77;;;5.80;;
64667;SDS011;51077;42.716;23.344;2022-09-27T06:31:06;7.13;;;5.37;;
64667;SDS011;51077;42.716;23.344;2022-09-27T06:33:35;8.02;;;5.53;;
64667;SDS011;51077;42.716;23.344;2022-09-27T06:36:01;9.90;;;5.87;;
64667;SDS011;51077;42.716;23.344;2022-09-27T06:38:31;6.57;;;5.25;;
64667;SDS011;51077;42.716;23.344;2022-09-27T06:40:59;7.53;;;6.28;;
64667;SDS011;51077;42.716;23.344;2022-09-27T06:43:26;8.23;;;5.50;;
64667;SDS011;51077;42.716;23.344;2022-09-27T06:45:52;7.83;;;6.10;;
64667;SDS011;51077;42.716;23.344;2022-09-27T06:48:18;7.75;;;5.95;;
64667;SDS011;51077;42.716;23.344;2022-09-27T06:50:45;7.83;;;5.97;;
64667;SDS011;51077;42.716;23.344;2022-09-27T06:53:13;8.20;;;5.97;;
64667;SDS011;51077;42.716;23.344;2022-09-27T06:55:40;7.60;;;5.63;;
64667;SDS011;51077;42.716;23.344;2022-09-27T06:58:06;8.23;;;6.22;;
64667;SDS011;51077;42.716;23.344;2022-09-27T07:00:51;8.68;;;6.47;;
64667;SDS011;51077;42.716;23.344;2022-09-27T07:03:18;9.10;;;6.20;;
64667;SDS011;51077;42.716;23.344;2022-09-27T07:05:53;8.73;;;6.15;;
64667;SDS011;51077;42.716;23.344;2022-09-27T07:08:22;9.90;;;7.38;;
64667;SDS011;51077;42.716;23.344;2022-09-27T07:10:50;9.85;;;6.63;;
64667;SDS011;51077;42.716;23.344;2022-09-27T07:13:17;10.57;;;6.68;;
64667;SDS011;51077;42.716;23.344;2022-09-27T07:15:42;9.60;;;6.30;;
64667;SDS011;51077;42.716;23.344;2022-09-27T07:18:08;10.33;;;7.03;;
64667;SDS011;51077;42.716;23.344;2022-09-27T07:20:34;8.03;;;6.20;;
64667;SDS011;51077;42.716;23.344;2022-09-27T07:23:01;9.60;;;6.65;;
64667;SDS011;51077;42.716;23.344;2022-09-27T07:25:27;9.57;;;7.00;;
64667;SDS011;51077;42.716;23.344;2022-09-27T07:27:53;13.57;;;7.70;;
64667;SDS011;51077;42.716;23.344;2022-09-27T07:30:19;10.27;;;6.53;;
64667;SDS011;51077;42.716;23.344;2022-09-27T07:32:45;11.00;;;7.47;;
64667;SDS011;51077;42.716;23.344;2022-09-27T07:35:12;9.85;;;7.32;;
64667;SDS011;51077;42.716;23.344;2022-09-27T07:37:39;11.25;;;7.15;;
64667;SDS011;51077;42.716;23.344;2022-09-27T07:40:06;14.13;;;6.78;;
64667;SDS011;51077;42.716;23.344;2022-09-27T07:42:33;11.38;;;6.45;;
64667;SDS011;51077;42.716;23.344;2022-09-27T07:45:02;9.43;;;6.30;;
64667;SDS011;51077;42.716;23.344;2022-09-27T07:47:28;9.55;;;6.80;;
64667;SDS011;51077;42.716;23.344;2022-09-27T07:49:54;9.68;;;7.25;;
64667;SDS011;51077;42.716;23.344;2022-09-27T07:52:20;8.87;;;6.60;;
64667;SDS011;51077;42.716;23.344;2022-09-27T07:54:46;9.80;;;6.90;;
64667;SDS011;51077;42.716;23.344;2022-09-27T07:57:12;12.23;;;6.87;;
64667;SDS011;51077;42.716;23.344;2022-09-27T07:59:39;9.13;;;6.32;;
64667;SDS011;51077;42.716;23.344;2022-09-27T08:02:05;10.97;;;6.27;;
64667;SDS011;51077;42.716;23.344;2022-09-27T08:04:30;13.80;;;7.30;;
64667;SDS011;51077;42.716;23.344;2022-09-27T08:06:56;12.27;;;6.90;;
64667;SDS011;51077;42.716;23.344;2022-09-27T08:09:21;11.93;;;6.63;;
64667;SDS011;51077;42.716;23.344;2022-09-27T08:11:47;8.30;;;6.47;;
64667;SDS011;51077;42.716;23.344;2022-09-27T08:14:13;12.20;;;6.90;;
64667;SDS011;51077;42.716;23.344;2022-09-27T08:16:39;16.20;;;6.80;;
64667;SDS011;51077;42.716;23.344;2022-09-27T08:19:05;8.95;;;6.50;;
64667;SDS011;51077;42.716;23.344;2022-09-27T08:21:31;10.75;;;6.78;;
64667;SDS011;51077;42.716;23.344;2022-09-27T08:23:57;10.70;;;6.50;;
64667;SDS011;51077;42.716;23.344;2022-09-27T08:26:23;9.30;;;6.38;;
64667;SDS011;51077;42.716;23.344;2022-09-27T08:28:51;10.25;;;6.40;;
64667;SDS011;51077;42.716;23.344;2022-09-27T08:31:16;11.57;;;5.90;;
64667;SDS011;51077;42.716;23.344;2022-09-27T08:33:42;11.97;;;7.03;;
64667;SDS011;51077;42.716;23.344;2022-09-27T08:36:11;12.27;;;6.67;;
64667;SDS011;51077;42.716;23.344;2022-09-27T08:38:37;8.93;;;7.03;;
64667;SDS011;51077;42.716;23.344;2022-09-27T08:41:06;17.60;;;6.90;;
64667;SDS011;51077;42.716;23.344;2022-09-27T08:43:44;10.15;;;6.22;;
64667;SDS011;51077;42.716;23.344;2022-09-27T08:49:35;8.32;;;5.78;;
64667;SDS011;51077;42.716;23.344;2022-09-27T08:52:06;8.30;;;5.95;;
64667;SDS011;51077;42.716;23.344;2022-09-27T08:54:37;8.50;;;5.63;;
64667;SDS011;51077;42.716;23.344;2022-09-27T08:57:04;6.78;;;5.25;;
64667;SDS011;51077;42.716;23.344;2022-09-27T09:00:00;7.30;;;5.35;;
64667;SDS011;51077;42.716;23.344;2022-09-27T09:02:31;10.05;;;5.25;;
64667;SDS011;51077;42.716;23.344;2022-09-27T09:05:07;8.93;;;5.78;;
64667;SDS011;51077;42.716;23.344;2022-09-27T09:24:29;9.90;;;5.60;;
64667;SDS011;51077;42.716;23.344;2022-09-27T09:34:41;7.32;;;5.30;;
64667;SDS011;51077;42.716;23.344;2022-09-27T09:39:47;9.40;;;5.05;;
64667;SDS011;51077;42.716;23.344;2022-09-27T09:42:24;8.75;;;5.55;;
64667;SDS011;51077;42.716;23.344;2022-09-27T09:45:02;6.78;;;5.18;;
64667;SDS011;51077;42.716;23.344;2022-09-27T09:50:04;8.60;;;5.47;;
64667;SDS011;51077;42.716;23.344;2022-09-27T09:52:45;6.90;;;4.95;;
64667;SDS011;51077;42.716;23.344;2022-09-27T09:55:20;10.25;;;4.60;;
64667;SDS011;51077;42.716;23.344;2022-09-27T10:00:45;6.93;;;4.65;;
64667;SDS011;51077;42.716;23.344;2022-09-27T10:03:13;7.45;;;4.88;;
64667;SDS011;51077;42.716;23.344;2022-09-27T10:05:38;9.33;;;4.70;;
64667;SDS011;51077;42.716;23.344;2022-09-27T10:08:11;9.73;;;4.78;;
64667;SDS011;51077;42.716;23.344;2022-09-27T10:10:44;9.30;;;4.97;;
64667;SDS011;51077;42.716;23.344;2022-09-27T10:13:19;9.23;;;4.13;;
64667;SDS011;51077;42.716;23.344;2022-09-27T10:15:48;8.15;;;4.82;;
64667;SDS011;51077;42.716;23.344;2022-09-27T10:18:36;11.73;;;5.00;;
64667;SDS011;51077;42.716;23.344;2022-09-27T10:21:09;12.13;;;4.60;;
64667;SDS011;51077;42.716;23.344;2022-09-27T10:26:35;8.50;;;4.38;;
64667;SDS011;51077;42.716;23.344;2022-09-27T10:31:54;6.20;;;4.18;;
64667;SDS011;51077;42.716;23.344;2022-09-27T10:34:26;6.43;;;4.00;;
64667;SDS011;51077;42.716;23.344;2022-09-27T10:39:29;10.23;;;4.18;;
64667;SDS011;51077;42.716;23.344;2022-09-27T10:41:55;8.15;;;3.50;;
64667;SDS011;51077;42.716;23.344;2022-09-27T10:46:51;5.93;;;3.75;;
64667;SDS011;51077;42.716;23.344;2022-09-27T10:51:58;5.80;;;3.30;;
64667;SDS011;51077;42.716;23.344;2022-09-27T10:54:26;6.55;;;3.72;;
64667;SDS011;51077;42.716;23.344;2022-09-27T10:56:56;6.22;;;4.22;;
64667;SDS011;51077;42.716;23.344;2022-09-27T10:59:31;5.50;;;3.92;;
64667;SDS011;51077;42.716;23.344;2022-09-27T11:02:00;6.03;;;3.25;;
64667;SDS011;51077;42.716;23.344;2022-09-27T11:04:31;5.97;;;3.10;;
64667;SDS011;51077;42.716;23.344;2022-09-27T11:07:11;4.57;;;3.30;;
64667;SDS011;51077;42.716;23.344;2022-09-27T11:09:51;6.05;;;3.25;;
64667;SDS011;51077;42.716;23.344;2022-09-27T11:12:18;4.20;;;2.92;;
64667;SDS011;51077;42.716;23.344;2022-09-27T11:15:05;5.65;;;2.78;;
64667;SDS011;51077;42.716;23.344;2022-09-27T11:30:58;5.33;;;2.67;;
64667;SDS011;51077;42.716;23.344;2022-09-27T11:56:30;3.47;;;2.35;;
64667;SDS011;51077;42.716;23.344;2022-09-27T12:01:53;5.20;;;2.57;;
64667;SDS011;51077;42.716;23.344;2022-09-27T12:07:18;5.67;;;2.77;;
64667;SDS011;51077;42.716;23.344;2022-09-27T12:09:54;5.60;;;2.28;;
64667;SDS011;51077;42.716;23.344;2022-09-27T12:12:27;4.10;;;2.25;;
64667;SDS011;51077;42.716;23.344;2022-09-27T12:15:02;5.97;;;2.53;;
64667;SDS011;51077;42.716;23.344;2022-09-27T12:17:34;6.50;;;2.50;;
64667;SDS011;51077;42.716;23.344;2022-09-27T12:23:03;3.27;;;2.23;;
64667;SDS011;51077;42.716;23.344;2022-09-27T12:25:35;4.07;;;2.20;;
64667;SDS011;51077;42.716;23.344;2022-09-27T12:28:08;3.25;;;2.50;;
64667;SDS011;51077;42.716;23.344;2022-09-27T12:30:44;4.68;;;3.20;;
64667;SDS011;51077;42.716;23.344;2022-09-27T12:33:31;4.53;;;2.20;;
64667;SDS011;51077;42.716;23.344;2022-09-27T12:36:04;4.72;;;2.78;;
64667;SDS011;51077;42.716;23.344;2022-09-27T12:38:46;5.25;;;2.90;;
64667;SDS011;51077;42.716;23.344;2022-09-27T12:41:17;3.60;;;2.40;;
64667;SDS011;51077;42.716;23.344;2022-09-27T12:43:47;4.65;;;2.55;;
64667;SDS011;51077;42.716;23.344;2022-09-27T12:46:27;5.07;;;2.20;;
64667;SDS011;51077;42.716;23.344;2022-09-27T12:49:04;5.95;;;2.83;;
64667;SDS011;51077;42.716;23.344;2022-09-27T12:51:42;5.95;;;2.92;;
64667;SDS011;51077;42.716;23.344;2022-09-27T12:57:05;4.03;;;2.65;;
64667;SDS011;51077;42.716;23.344;2022-09-27T13:05:16;4.00;;;1.98;;
64667;SDS011;51077;42.716;23.344;2022-09-27T13:07:52;5.53;;;2.33;;
64667;SDS011;51077;42.716;23.344;2022-09-27T13:13:03;3.28;;;2.10;;
64667;SDS011;51077;42.716;23.344;2022-09-27T13:15:34;6.55;;;2.25;;
64667;SDS011;51077;42.716;23.344;2022-09-27T13:18:04;4.22;;;2.20;;
64667;SDS011;51077;42.716;23.344;2022-09-27T13:20:50;5.75;;;1.90;;
64667;SDS011;51077;42.716;23.344;2022-09-27T13:30:58;6.15;;;1.98;;
64667;SDS011;51077;42.716;23.344;2022-09-27T13:33:50;4.80;;;2.20;;
64667;SDS011;51077;42.716;23.344;2022-09-27T13:49:41;4.78;;;2.00;;
64667;SDS011;51077;42.716;23.344;2022-09-27T13:55:00;3.67;;;2.28;;
64667;SDS011;51077;42.716;23.344;2022-09-27T14:00:19;4.18;;;1.70;;
64667;SDS011;51077;42.716;23.344;2022-09-27T14:02:53;3.78;;;1.85;;
64667;SDS011;51077;42.716;23.344;2022-09-27T14:05:33;3.55;;;1.50;;
64667;SDS011;51077;42.716;23.344;2022-09-27T14:08:13;6.90;;;1.90;;
64667;SDS011;51077;42.716;23.344;2022-09-27T14:10:51;5.63;;;2.30;;
64667;SDS011;51077;42.716;23.344;2022-09-27T14:13:18;4.75;;;2.05;;
64667;SDS011;51077;42.716;23.344;2022-09-27T14:15:46;3.55;;;1.52;;
64667;SDS011;51077;42.716;23.344;2022-09-27T14:18:12;4.25;;;1.85;;
64667;SDS011;51077;42.716;23.344;2022-09-27T14:20:41;5.47;;;1.90;;
64667;SDS011;51077;42.716;23.344;2022-09-27T14:23:23;4.80;;;1.40;;
64667;SDS011;51077;42.716;23.344;2022-09-27T14:25:50;6.00;;;2.50;;
64667;SDS011;51077;42.716;23.344;2022-09-27T14:33:35;3.25;;;2.03;;
64667;SDS011;51077;42.716;23.344;2022-09-27T14:36:01;3.20;;;1.77;;
64667;SDS011;51077;42.716;23.344;2022-09-27T14:41:12;4.72;;;1.63;;
64667;SDS011;51077;42.716;23.344;2022-09-27T14:43:43;4.47;;;2.03;;
64667;SDS011;51077;42.716;23.344;2022-09-27T14:46:24;5.07;;;2.03;;
64667;SDS011;51077;42.716;23.344;2022-09-27T14:48:54;5.65;;;2.20;;
64667;SDS011;51077;42.716;23.344;2022-09-27T14:51:23;5.72;;;2.30;;
64667;SDS011;51077;42.716;23.344;2022-09-27T14:53:53;5.13;;;2.25;;
64667;SDS011;51077;42.716;23.344;2022-09-27T14:56:32;6.72;;;3.00;;
64667;SDS011;51077;42.716;23.344;2022-09-27T14:59:02;5.88;;;3.30;;
64667;SDS011;51077;42.716;23.344;2022-09-27T15:01:37;5.82;;;3.20;;
64667;SDS011;51077;42.716;23.344;2022-09-27T15:04:07;5.03;;;3.00;;
64667;SDS011;51077;42.716;23.344;2022-09-27T15:09:04;6.37;;;2.97;;
64667;SDS011;51077;42.716;23.344;2022-09-27T15:11:31;6.57;;;3.55;;
64667;SDS011;51077;42.716;23.344;2022-09-27T15:13:58;6.80;;;3.08;;
64667;SDS011;51077;42.716;23.344;2022-09-27T15:16:26;6.72;;;3.25;;
64667;SDS011;51077;42.716;23.344;2022-09-27T15:18:59;6.23;;;1.90;;
64667;SDS011;51077;42.716;23.344;2022-09-27T15:21:28;5.55;;;1.70;;
64667;SDS011;51077;42.716;23.344;2022-09-27T15:23:59;5.30;;;1.48;;
64667;SDS011;51077;42.716;23.344;2022-09-27T15:29:02;4.65;;;1.63;;
64667;SDS011;51077;42.716;23.344;2022-09-27T15:31:37;3.10;;;1.85;;
64667;SDS011;51077;42.716;23.344;2022-09-27T15:39:08;3.20;;;1.40;;
64667;SDS011;51077;42.716;23.344;2022-09-27T15:44:38;5.43;;;1.92;;
64667;SDS011;51077;42.716;23.344;2022-09-27T15:55:18;6.32;;;2.20;;
64667;SDS011;51077;42.716;23.344;2022-09-27T15:57:46;5.88;;;2.33;;
64667;SDS011;51077;42.716;23.344;2022-09-27T16:00:16;4.50;;;2.00;;
64667;SDS011;51077;42.716;23.344;2022-09-27T16:02:43;4.95;;;2.60;;
64667;SDS011;51077;42.716;23.344;2022-09-27T16:05:09;5.57;;;3.30;;
64667;SDS011;51077;42.716;23.344;2022-09-27T16:07:35;7.50;;;4.07;;
64667;SDS011;51077;42.716;23.344;2022-09-27T16:10:01;8.53;;;4.97;;
64667;SDS011;51077;42.716;23.344;2022-09-27T16:12:33;10.65;;;4.22;;
64667;SDS011;51077;42.716;23.344;2022-09-27T16:14:59;7.70;;;4.30;;
64667;SDS011;51077;42.716;23.344;2022-09-27T16:17:24;8.47;;;3.50;;
64667;SDS011;51077;42.716;23.344;2022-09-27T16:19:50;6.20;;;3.73;;
64667;SDS011;51077;42.716;23.344;2022-09-27T16:22:15;6.73;;;3.90;;
64667;SDS011;51077;42.716;23.344;2022-09-27T16:24:41;5.30;;;3.23;;
64667;SDS011;51077;42.716;23.344;2022-09-27T16:27:06;6.67;;;3.30;;
64667;SDS011;51077;42.716;23.344;2022-09-27T16:29:32;6.70;;;3.43;;
64667;SDS011;51077;42.716;23.344;2022-09-27T16:31:57;7.17;;;3.43;;
64667;SDS011;51077;42.716;23.344;2022-09-27T16:34:23;6.20;;;3.37;;
64667;SDS011;51077;42.716;23.344;2022-09-27T16:36:48;6.93;;;3.00;;
64667;SDS011;51077;42.716;23.344;2022-09-27T16:39:14;6.63;;;3.13;;
64667;SDS011;51077;42.716;23.344;2022-09-27T16:41:39;8.57;;;3.33;;
64667;SDS011;51077;42.716;23.344;2022-09-27T16:44:14;7.50;;;3.43;;
64667;SDS011;51077;42.716;23.344;2022-09-27T16:46:43;6.47;;;3.60;;
64667;SDS011;51077;42.716;23.344;2022-09-27T16:49:11;8.25;;;3.95;;
64667;SDS011;51077;42.716;23.344;2022-09-27T16:51:56;10.52;;;4.95;;
64667;SDS011;51077;42.716;23.344;2022-09-27T16:54:26;10.15;;;4.80;;
64667;SDS011;51077;42.716;23.344;2022-09-27T16:56:56;10.57;;;5.40;;
64667;SDS011;51077;42.716;23.344;2022-09-27T16:59:22;12.38;;;5.35;;
64667;SDS011;51077;42.716;23.344;2022-09-27T17:01:52;12.23;;;5.28;;
64667;SDS011;51077;42.716;23.344;2022-09-27T17:04:21;10.02;;;4.78;;
64667;SDS011;51077;42.716;23.344;2022-09-27T17:06:47;9.10;;;5.05;;
64667;SDS011;51077;42.716;23.344;2022-09-27T17:09:13;9.73;;;4.93;;
64667;SDS011;51077;42.716;23.344;2022-09-27T17:11:38;9.27;;;5.53;;
64667;SDS011;51077;42.716;23.344;2022-09-27T17:14:04;9.63;;;5.33;;
64667;SDS011;51077;42.716;23.344;2022-09-27T17:16:30;8.70;;;5.33;;
64667;SDS011;51077;42.716;23.344;2022-09-27T17:18:55;10.13;;;5.67;;
64667;SDS011;51077;42.716;23.344;2022-09-27T17:21:21;9.33;;;5.13;;
64667;SDS011;51077;42.716;23.344;2022-09-27T17:23:47;9.13;;;4.90;;
64667;SDS011;51077;42.716;23.344;2022-09-27T17:28:40;8.65;;;4.65;;
64667;SDS011;51077;42.716;23.344;2022-09-27T17:31:07;8.38;;;4.25;;
64667;SDS011;51077;42.716;23.344;2022-09-27T17:33:41;7.38;;;5.30;;
64667;SDS011;51077;42.716;23.344;2022-09-27T17:38:43;8.32;;;4.53;;
64667;SDS011;51077;42.716;23.344;2022-09-27T17:41:11;7.45;;;4.80;;
64667;SDS011;51077;42.716;23.344;2022-09-27T17:43:39;10.07;;;5.40;;
64667;SDS011;51077;42.716;23.344;2022-09-27T17:46:16;10.52;;;5.15;;
64667;SDS011;51077;42.716;23.344;2022-09-27T17:48:46;10.10;;;6.13;;
64667;SDS011;51077;42.716;23.344;2022-09-27T17:51:30;9.95;;;5.70;;
64667;SDS011;51077;42.716;23.344;2022-09-27T17:53:57;8.38;;;5.75;;
64667;SDS011;51077;42.716;23.344;2022-09-27T17:56:23;11.85;;;5.32;;
64667;SDS011;51077;42.716;23.344;2022-09-27T17:58:52;7.90;;;5.10;;
64667;SDS011;51077;42.716;23.344;2022-09-27T18:01:19;10.18;;;5.43;;
64667;SDS011;51077;42.716;23.344;2022-09-27T18:03:46;9.15;;;5.18;;
64667;SDS011;51077;42.716;23.344;2022-09-27T18:06:12;8.53;;;5.07;;
64667;SDS011;51077;42.716;23.344;2022-09-27T18:08:40;8.15;;;5.03;;
64667;SDS011;51077;42.716;23.344;2022-09-27T18:11:10;10.75;;;6.13;;
64667;SDS011;51077;42.716;23.344;2022-09-27T18:13:37;7.82;;;5.03;;
64667;SDS011;51077;42.716;23.344;2022-09-27T18:16:13;9.23;;;5.78;;
64667;SDS011;51077;42.716;23.344;2022-09-27T18:18:41;9.88;;;5.93;;
64667;SDS011;51077;42.716;23.344;2022-09-27T18:21:12;10.18;;;5.22;;
64667;SDS011;51077;42.716;23.344;2022-09-27T18:23:39;10.88;;;5.47;;
64667;SDS011;51077;42.716;23.344;2022-09-27T18:26:06;9.90;;;5.30;;
64667;SDS011;51077;42.716;23.344;2022-09-27T18:28:35;9.25;;;5.22;;